Estación Meteorológica Peña el Pijo (Robertgarden) [ 11/12/18 21:11:51 CET ]

Fecha Hora Presion(HPa) Temp (°C) Humedad % Rocio (°C) Viento ( m/s) Direccion Lluvia 1Hora(mm) Lluvia 24H(mm) LLuvia Total(mm)
2018-Jul-01 01:01:57 1005.800 16.9 67 10.7         269.36
2018-Jul-01 02:01:44 1005.500 15.9 72 10.9         269.36
2018-Jul-01 03:01:36 1005.700 14.9 75 10.5         269.36
2018-Jul-01 04:05:08 1005.500 14.7 78 10.9         269.36
2018-Jul-01 05:01:57 1005.500 13.9 79 10.3         269.36
2018-Jul-01 06:01:48 1005.500 13.4 81 10.2         269.36
2018-Jul-01 07:01:57 1005.700 12.9 82 9.9         269.36
2018-Jul-01 08:01:37 1005.900 14.3 84 11.6         269.36
2018-Jul-01 09:01:43 1006.100 19.0 80 15.5         269.36
2018-Jul-01 10:01:44 1005.900 22.9 65 15.9         269.36
2018-Jul-01 11:01:41 1006.000 27.1 52 16.4         269.36
2018-Jul-01 12:01:44 1005.800 28.3 41 13.8         269.36
2018-Jul-01 13:01:34 1005.800 28.9 29 9.0         269.36
2018-Jul-01 14:01:53 1005.500 28.8 25 6.6         269.36
2018-Jul-01 15:01:44 1005.500 31.8 24 8.5         269.36
2018-Jul-01 16:01:51 1004.900 31.9 28 11.0         269.36
2018-Jul-01 17:01:42 1004.700 29.9 30 10.5         269.36
2018-Jul-01 18:01:41 1004.800 30.8 31 11.7 0.4 NW     269.36
2018-Jul-01 19:01:56 1004.800 29.1 35 11.8         269.36
2018-Jul-01 20:01:50 1005.300 25.9 41 11.6         269.36
2018-Jul-01 21:01:46 1006.200 22.5 47 10.6         269.36
2018-Jul-01 22:01:40 1007.000 20.5 51 10.0         269.36
2018-Jul-01 23:01:44 1008.000 18.7 54 9.2         269.36

Temperatura Máxima:31°    Temperatura Mínima:12°
Presión Máxima:1008.000 Hpa    Presión Mínima:1004.700 Hpa


Volver